Time;durP1;ratioP1;P1;durP2;ratioP2;P2;SDS_P1;SDS_P2;PMS_P1;PMS_P2;Temp;Humidity;BMP_temperature;BMP_pressure;BME280_temperature;BME280_humidity;BME280_pressure;Samples;Min_cycle;Max_cycle;Signal;HPM_P1;HPM_P2
2022/06/11 00:01:45;;;;;;;3.63;1.40;;;;;;;19.11;71.55;101183.59;5053178;28;20192;-73
2022/06/11 00:04:16;;;;;;;3.37;1.30;;;;;;;19.09;71.84;101164.28;5053520;28;20216;-73
2022/06/11 00:06:46;;;;;;;1.30;1.20;;;;;;;19.11;72.02;101160.66;5053470;28;20289;-73
2022/06/11 00:09:13;;;;;;;1.77;1.50;;;;;;;19.10;72.13;101152.78;5053390;28;20204;-73
2022/06/11 00:11:41;;;;;;;2.67;1.70;;;;;;;19.10;71.89;101166.00;5053240;28;20206;-73
2022/06/11 00:14:08;;;;;;;1.77;1.30;;;;;;;19.10;71.25;101168.66;5053614;28;20294;-73
2022/06/11 00:16:35;;;;;;;3.13;1.50;;;;;;;19.09;71.18;101188.97;5052874;28;20784;-73
2022/06/11 00:19:06;;;;;;;2.27;1.40;;;;;;;19.10;71.83;101182.75;5052655;28;20240;-73
2022/06/11 00:21:37;;;;;;;1.83;1.40;;;;;;;19.10;71.83;101163.38;5053216;28;20219;-73
2022/06/11 00:24:05;;;;;;;3.13;1.60;;;;;;;19.09;72.20;101161.63;5053280;28;20209;-73
2022/06/11 00:26:32;;;;;;;3.03;1.50;;;;;;;19.04;71.48;101168.00;5053078;28;20275;-73
2022/06/11 00:28:59;;;;;;;1.80;1.50;;;;;;;19.07;71.71;101160.84;5052872;28;20201;-73
2022/06/11 00:31:27;;;;;;;3.00;2.00;;;;;;;19.07;71.89;101159.06;5052710;28;20205;-73
2022/06/11 00:33:53;;;;;;;2.40;1.40;;;;;;;19.07;72.23;101140.56;5053144;28;20208;-73
2022/06/11 00:36:20;;;;;;;1.90;1.30;;;;;;;19.09;72.50;101133.41;5052743;28;20233;-73
2022/06/11 00:38:49;;;;;;;3.90;1.30;;;;;;;19.08;72.33;101136.13;5052804;28;20229;-73
2022/06/11 00:41:16;;;;;;;2.33;1.43;;;;;;;19.07;72.20;101137.03;5052983;28;20266;-73
2022/06/11 00:43:43;;;;;;;1.83;1.60;;;;;;;19.07;72.02;101142.31;5052766;28;20207;-73
2022/06/11 00:46:49;;;;;;;2.67;1.63;;;;;;;19.02;71.67;101138.09;5052625;28;20232;-73
2022/06/11 00:49:22;;;;;;;2.20;1.40;;;;;;;19.02;71.34;101153.09;5046801;28;20247;-73
2022/06/11 00:51:52;;;;;;;2.17;1.47;;;;;;;18.98;71.27;101155.03;5052904;28;20243;-73
2022/06/11 00:54:26;;;;;;;2.60;1.60;;;;;;;18.93;71.77;101151.72;5052518;28;20279;-73
2022/06/11 00:56:55;;;;;;;3.13;1.67;;;;;;;18.92;71.58;101144.69;5052590;28;20231;-73
2022/06/11 00:59:27;;;;;;;2.03;1.37;;;;;;;18.89;71.41;101151.91;5052199;28;20234;-73
2022/06/11 01:01:54;;;;;;;4.43;1.40;;;;;;;18.87;71.99;101136.13;5051904;28;20257;-73
2022/06/11 01:04:45;;;;;;;5.17;1.40;;;;;;;18.83;71.92;101126.59;5052561;28;20215;-73
2022/06/11 01:07:26;;;;;;;1.97;1.20;;;;;;;18.85;71.03;101159.97;5052279;28;20238;-73
2022/06/11 01:10:11;;;;;;;1.30;1.30;;;;;;;18.75;72.02;101148.03;5052332;28;20193;-73
2022/06/11 01:12:46;;;;;;;2.23;1.40;;;;;;;18.72;71.49;101142.00;5052199;28;20670;-73
2022/06/11 01:15:16;;;;;;;2.00;1.50;;;;;;;18.68;72.01;101135.97;5051582;28;20290;-73
2022/06/11 01:17:53;;;;;;;2.23;1.60;;;;;;;18.66;72.16;101130.75;5051628;28;20215;-73
2022/06/11 01:20:41;;;;;;;3.27;1.67;;;;;;;18.72;72.14;101120.84;5051854;28;20216;-73
2022/06/11 01:23:58;;;;;;;2.27;1.40;;;;;;;18.70;72.27;101125.34;5051873;28;20302;-73
2022/06/11 01:26:55;;;;;;;2.93;1.77;;;;;;;18.71;72.56;101108.53;5052088;28;20229;-73
2022/06/11 01:29:39;;;;;;;2.57;1.70;;;;;;;18.71;72.92;101090.91;5051641;28;20205;-73
2022/06/11 01:32:12;;;;;;;4.73;2.03;;;;;;;18.71;73.22;101087.38;5051869;28;20246;-73
2022/06/11 01:34:48;;;;;;;1.63;1.40;;;;;;;18.70;73.07;101077.75;5051722;28;20706;-73
2022/06/11 01:37:21;;;;;;;3.10;1.70;;;;;;;18.69;73.17;101074.25;5052171;28;20195;-73
2022/06/11 01:39:53;;;;;;;1.83;1.60;;;;;;;18.69;73.17;101073.38;5051345;28;20229;-73
2022/06/11 01:42:24;;;;;;;2.07;1.20;;;;;;;18.70;73.23;101069.81;5051797;28;20216;-73
2022/06/11 01:45:04;;;;;;;2.43;1.40;;;;;;;18.68;73.05;101064.56;5051504;28;20214;-73
2022/06/11 01:47:31;;;;;;;2.13;1.60;;;;;;;18.69;73.33;101061.03;5051446;28;20203;-73
2022/06/11 01:49:58;;;;;;;1.73;1.57;;;;;;;18.65;73.18;101060.28;5031481;28;20209;-73
2022/06/11 01:52:49;;;;;;;2.67;1.60;;;;;;;18.63;73.27;101064.78;5031728;28;20690;-73
2022/06/11 01:55:27;;;;;;;2.13;1.73;;;;;;;18.57;72.96;101072.97;5031847;28;20231;-73
2022/06/11 01:58:06;;;;;;;2.47;2.00;;;;;;;18.53;73.62;101054.66;5031669;28;20755;-73
2022/06/11 02:00:37;;;;;;;1.83;1.57;;;;;;;18.54;73.40;101053.75;5044697;28;20249;-73
2022/06/11 02:03:22;;;;;;;4.37;1.67;;;;;;;18.57;73.65;101043.91;5051176;28;20600;-73
2022/06/11 02:06:05;;;;;;;2.17;1.83;;;;;;;18.55;73.40;101048.38;5054930;28;20566;-73
2022/06/11 02:08:52;;;;;;;2.40;2.03;;;;;;;18.55;73.10;101063.38;5058160;28;20672;-73
2022/06/11 02:11:27;;;;;;;3.53;1.73;;;;;;;18.55;73.45;101052.78;5057917;28;20649;-73
2022/06/11 02:13:57;;;;;;;1.70;1.10;;;;;;;18.56;73.09;101052.75;5058299;28;20217;-73
2022/06/11 02:16:32;;;;;;;2.37;1.47;;;;;;;18.52;73.66;101045.00;5057750;28;20224;-73
2022/06/11 02:19:01;;;;;;;1.50;1.40;;;;;;;18.53;72.78;101060.81;5057422;28;20261;-73
2022/06/11 02:21:33;;;;;;;2.47;1.50;;;;;;;18.49;70.64;101093.56;5058237;28;20212;-72
2022/06/11 02:24:04;;;;;;;3.27;1.60;;;;;;;18.52;71.35;101127.81;5058180;28;20195;-73
2022/06/11 02:26:34;;;;;;;1.83;1.40;;;;;;;18.53;71.54;101126.03;5057927;28;20227;-73
2022/06/11 02:29:03;;;;;;;1.73;1.50;;;;;;;18.54;71.73;101112.75;5057666;28;20200;-73
2022/06/11 02:31:40;;;;;;;1.53;1.43;;;;;;;18.57;71.66;101114.41;5057229;28;20258;-73
2022/06/11 02:34:09;;;;;;;1.50;1.40;;;;;;;18.58;72.38;101103.78;5057931;28;20593;-73
2022/06/11 02:36:48;;;;;;;2.37;1.67;;;;;;;18.57;71.84;101110.00;5057705;28;20278;-73
2022/06/11 02:39:14;;;;;;;2.40;1.83;;;;;;;18.55;72.63;101095.09;5057497;28;20701;-73
2022/06/11 02:41:42;;;;;;;2.00;1.80;;;;;;;18.50;72.87;101082.09;5057520;28;20216;-73
2022/06/11 02:44:08;;;;;;;4.23;1.90;;;;;;;18.47;73.66;101061.03;5057690;28;20538;-73
2022/06/11 02:46:43;;;;;;;3.30;1.83;;;;;;;18.48;73.23;101062.78;5057600;28;20589;-73
2022/06/11 02:49:18;;;;;;;2.00;1.80;;;;;;;18.44;73.72;101061.19;5057601;28;20635;-73
2022/06/11 02:51:48;;;;;;;2.53;1.67;;;;;;;18.37;73.25;101063.22;5057512;28;20573;-73
2022/06/11 02:54:15;;;;;;;3.57;1.50;;;;;;;18.37;73.67;101044.72;5057731;28;20208;-73
2022/06/11 02:56:42;;;;;;;1.47;1.37;;;;;;;18.38;73.37;101050.88;5057829;28;20231;-73
2022/06/11 02:59:09;;;;;;;3.27;2.17;;;;;;;18.40;72.97;101070.19;5057503;28;20312;-73
2022/06/11 03:01:37;;;;;;;2.10;1.63;;;;;;;18.42;73.21;101063.03;5057042;28;20246;-73
2022/06/11 03:04:04;;;;;;;2.20;1.40;;;;;;;18.40;73.56;101060.44;5057641;28;20255;-73
2022/06/11 03:06:30;;;;;;;2.37;1.57;;;;;;;18.36;73.09;101068.59;5057488;28;20224;-73
2022/06/11 03:08:58;;;;;;;2.27;1.53;;;;;;;18.37;73.24;101060.56;5057073;28;20279;-73
2022/06/11 03:11:25;;;;;;;1.60;1.50;;;;;;;18.41;72.71;101080.69;5057799;28;20208;-73
2022/06/11 03:13:52;;;;;;;3.13;1.60;;;;;;;18.41;72.42;101095.66;5057799;28;20204;-73
2022/06/11 03:16:18;;;;;;;5.03;2.20;;;;;;;18.44;72.76;101091.13;5056393;28;20235;-73
2022/06/11 03:18:46;;;;;;;2.43;1.60;;;;;;;18.39;73.07;101085.19;5053129;28;20223;-73
2022/06/11 03:21:13;;;;;;;2.73;1.70;;;;;;;18.39;73.91;101056.09;5053920;28;20216;-73
2022/06/11 03:23:39;;;;;;;3.33;1.90;;;;;;;18.36;74.40;101045.66;5054272;28;20554;-73
2022/06/11 03:26:07;;;;;;;2.77;1.70;;;;;;;18.34;74.46;101030.78;5054227;28;20232;-73
2022/06/11 03:28:34;;;;;;;2.60;1.50;;;;;;;18.31;72.52;101065.25;5054094;28;20205;-73
2022/06/11 03:31:01;;;;;;;2.33;2.07;;;;;;;18.33;73.44;101066.06;5053698;28;20204;-73
2022/06/11 03:33:28;;;;;;;1.80;1.50;;;;;;;18.37;73.46;101072.94;5054294;28;20211;-73
2022/06/11 03:35:56;;;;;;;2.27;1.40;;;;;;;18.37;72.99;101088.78;5053863;28;20224;-73
2022/06/11 03:38:22;;;;;;;2.20;1.73;;;;;;;18.39;73.63;101079.00;5054281;28;20212;-73
2022/06/11 03:40:49;;;;;;;2.33;1.73;;;;;;;18.37;71.12;101131.94;5053723;28;20715;-73
2022/06/11 03:43:15;;;;;;;2.07;1.50;;;;;;;18.43;71.55;101141.41;5053899;28;20220;-73
2022/06/11 03:45:42;;;;;;;1.63;1.53;;;;;;;18.40;72.43;101129.19;5053365;28;20229;-73
2022/06/11 03:48:09;;;;;;;1.93;1.60;;;;;;;18.38;72.89;101116.97;5053706;28;20208;-73
2022/06/11 03:50:39;;;;;;;3.90;1.93;;;;;;;18.37;72.74;101112.59;5053344;28;20200;-73
2022/06/11 03:53:09;;;;;;;3.00;1.60;;;;;;;18.38;73.13;101087.88;5053888;28;20249;-73
2022/06/11 03:55:36;;;;;;;1.93;1.63;;;;;;;18.42;73.48;101092.13;5053675;28;20224;-73
2022/06/11 03:58:04;;;;;;;1.60;1.50;;;;;;;18.41;73.52;101083.34;5053776;28;20206;-73
2022/06/11 04:03:17;;;;;;;3.33;2.10;;;;;;;18.44;73.24;101100.84;5053687;28;20212;-73
2022/06/11 04:05:44;;;;;;;2.50;1.70;;;;;;;18.46;74.53;101068.13;5053670;28;20224;-73
2022/06/11 04:08:13;;;;;;;2.30;1.60;;;;;;;18.49;73.66;101072.41;5053202;28;20691;-73
2022/06/11 04:10:41;;;;;;;2.07;1.50;;;;;;;18.51;73.46;101094.38;5053094;28;20898;-73
2022/06/11 04:13:08;;;;;;;2.83;1.80;;;;;;;18.55;73.52;101087.16;5053529;28;20219;-73
2022/06/11 04:15:35;;;;;;;2.30;1.70;;;;;;;18.56;73.46;101094.19;5052936;28;20264;-73
2022/06/11 04:18:02;;;;;;;2.10;1.67;;;;;;;18.53;73.55;101091.66;5052727;28;20638;-73
2022/06/11 04:20:29;;;;;;;2.37;1.70;;;;;;;18.46;72.26;101131.56;5052637;28;20220;-73
2022/06/11 04:22:56;;;;;;;3.10;1.90;;;;;;;18.57;72.13;101154.06;5053311;28;20231;-73
2022/06/11 04:25:23;;;;;;;1.60;1.50;;;;;;;18.57;73.09;101115.28;5053407;28;20882;-73
2022/06/11 04:27:53;;;;;;;2.13;1.50;;;;;;;18.56;70.95;101160.28;5052683;28;20204;-73
2022/06/11 04:30:21;;;;;;;4.03;2.10;;;;;;;18.60;73.14;101144.22;5052270;28;20254;-73
2022/06/11 04:32:47;;;;;;;2.80;1.60;;;;;;;18.66;73.32;101111.38;5044959;28;20208;-73
2022/06/11 04:35:14;;;;;;;2.40;2.07;;;;;;;18.70;72.49;101120.06;5052616;28;20718;-73
2022/06/11 04:37:41;;;;;;;3.13;1.60;;;;;;;18.74;72.03;101148.94;5052615;28;20208;-73
2022/06/11 04:40:08;;;;;;;3.50;1.80;;;;;;;18.77;70.99;101180.56;5052527;28;20709;-73
2022/06/11 04:42:37;;;;;;;2.47;1.70;;;;;;;18.77;70.47;101212.31;5052659;28;20597;-73
2022/06/11 04:45:05;;;;;;;2.57;1.73;;;;;;;18.83;70.55;101214.75;5052855;28;20225;-73
2022/06/11 04:47:32;;;;;;;3.30;1.90;;;;;;;18.88;71.23;101203.09;5052197;28;20677;-73
2022/06/11 04:50:02;;;;;;;4.07;1.87;;;;;;;18.94;71.55;101187.81;5052435;28;20266;-73
2022/06/11 04:52:29;;;;;;;3.23;2.00;;;;;;;18.99;71.39;101175.28;5052572;28;20254;-73
2022/06/11 04:54:55;;;;;;;3.33;1.70;;;;;;;19.00;71.12;101192.00;5052615;28;20286;-73
2022/06/11 04:57:23;;;;;;;4.67;1.90;;;;;;;19.04;70.23;101214.75;5052408;28;20647;-73
2022/06/11 04:59:52;;;;;;;1.70;1.60;;;;;;;19.04;70.42;101215.63;5051955;28;20223;-73
2022/06/11 05:02:20;;;;;;;2.80;1.60;;;;;;;19.04;70.26;101217.41;5052412;28;20300;-73
2022/06/11 05:04:47;;;;;;;4.73;2.20;;;;;;;19.08;69.84;101242.81;5051925;28;20308;-73
2022/06/11 05:07:13;;;;;;;2.50;1.97;;;;;;;19.11;69.49;101255.94;5052584;28;20620;-73
2022/06/11 05:09:40;;;;;;;3.47;1.70;;;;;;;19.12;70.85;101227.69;5052009;28;20212;-73
2022/06/11 05:12:07;;;;;;;2.37;1.83;;;;;;;19.01;68.82;101258.09;5052366;28;20204;-73
2022/06/11 05:14:34;;;;;;;2.17;1.43;;;;;;;19.10;68.89;101266.59;5052254;28;20563;-73
2022/06/11 05:17:02;;;;;;;2.43;2.00;;;;;;;19.08;69.58;101265.78;5051252;28;20721;-73
2022/06/11 05:19:29;;;;;;;2.00;1.73;;;;;;;19.11;69.28;101263.00;5051897;28;20227;-73
2022/06/11 05:21:56;;;;;;;3.30;2.37;;;;;;;19.11;69.77;101266.53;5032268;28;20208;-73
2022/06/11 05:24:22;;;;;;;2.93;1.83;;;;;;;19.15;69.26;101270.75;5032212;28;20259;-73
2022/06/11 05:26:52;;;;;;;4.00;1.90;;;;;;;19.20;69.40;101270.56;5034938;28;20216;-73
2022/06/11 05:29:23;;;;;;;3.60;1.97;;;;;;;19.11;68.73;101286.81;5051433;28;20609;-73
2022/06/11 05:31:50;;;;;;;3.60;2.03;;;;;;;19.17;69.22;101283.94;5044041;28;20204;-73
2022/06/11 05:34:19;;;;;;;2.73;1.80;;;;;;;19.26;69.08;101283.53;5052146;28;20234;-73
2022/06/11 05:36:45;;;;;;;2.00;1.80;;;;;;;19.29;69.21;101283.44;5051620;28;20274;-73
2022/06/11 05:39:12;;;;;;;2.93;2.03;;;;;;;19.28;69.78;101268.44;5051452;28;20740;-73
2022/06/11 05:41:38;;;;;;;3.77;1.80;;;;;;;19.34;69.41;101276.13;5050964;28;20632;-73
2022/06/11 05:44:05;;;;;;;2.47;1.70;;;;;;;19.36;69.96;101268.13;5051924;28;20269;-73
2022/06/11 05:46:32;;;;;;;2.17;1.73;;;;;;;19.42;69.73;101260.81;5051526;28;20228;-73
2022/06/11 05:49:02;;;;;;;2.30;1.83;;;;;;;19.42;69.49;101271.41;5051429;28;20204;-73
2022/06/11 05:51:34;;;;;;;1.97;1.77;;;;;;;19.46;69.58;101274.75;5051513;28;20258;-73
2022/06/11 05:54:06;;;;;;;2.60;2.07;;;;;;;19.47;70.32;101260.59;5051691;28;20605;-73
2022/06/11 05:56:32;;;;;;;2.77;2.23;;;;;;;19.50;70.58;101249.84;5051226;28;20275;-72
2022/06/11 05:59:02;;;;;;;5.03;2.27;;;;;;;19.57;70.43;101243.38;5051502;28;20239;-73
2022/06/11 06:01:40;;;;;;;3.60;2.20;;;;;;;19.57;69.56;101258.41;5051415;28;20266;-73
2022/06/11 06:04:07;;;;;;;3.77;1.77;;;;;;;19.63;69.95;101266.94;5051640;28;20641;-73
2022/06/11 06:06:35;;;;;;;2.67;2.13;;;;;;;19.60;69.73;101279.47;5051134;28;20272;-73
2022/06/11 06:09:02;;;;;;;2.60;1.80;;;;;;;19.65;69.76;101280.13;5051118;28;20611;-73
2022/06/11 06:11:29;;;;;;;2.60;1.70;;;;;;;19.69;69.25;101289.66;5051280;28;20201;-73
2022/06/11 06:13:56;;;;;;;5.93;2.20;;;;;;;19.76;69.61;101284.97;5045447;28;20255;-73
2022/06/11 06:16:25;;;;;;;3.73;2.30;;;;;;;19.70;69.34;101275.50;5040180;28;20224;-73
2022/06/11 06:18:53;;;;;;;3.27;2.00;;;;;;;19.74;69.26;101297.44;5041906;28;20273;-73
2022/06/11 06:21:22;;;;;;;3.77;1.60;;;;;;;19.69;68.80;101312.66;5040001;28;20231;-73
2022/06/11 06:23:50;;;;;;;2.33;1.80;;;;;;;19.69;69.09;101302.06;5041630;28;20239;-73
2022/06/11 06:26:17;;;;;;;2.40;2.20;;;;;;;19.71;69.34;101294.91;5041244;28;20293;-73
2022/06/11 06:28:44;;;;;;;3.57;2.10;;;;;;;19.73;69.61;101295.72;5039879;28;20232;-73
2022/06/11 06:31:13;;;;;;;3.63;2.40;;;;;;;19.73;69.97;101288.63;5047153;28;20208;-73
2022/06/11 06:33:40;;;;;;;3.07;1.90;;;;;;;19.80;70.50;101266.25;5042686;28;20209;-73
2022/06/11 06:36:08;;;;;;;3.50;2.37;;;;;;;19.80;70.04;101279.50;5041806;28;20594;-73
2022/06/11 06:38:36;;;;;;;3.67;2.47;;;;;;;19.91;69.86;101284.31;5040225;28;20205;-73
2022/06/11 06:41:05;;;;;;;2.33;1.80;;;;;;;19.93;69.10;101302.81;5039698;28;20217;-73
2022/06/11 06:43:32;;;;;;;3.77;2.27;;;;;;;19.99;69.70;101306.03;5042173;28;20208;-73
2022/06/11 06:45:59;;;;;;;2.80;1.87;;;;;;;20.06;69.61;101298.69;5040452;28;20224;-74
2022/06/11 06:48:26;;;;;;;3.20;2.27;;;;;;;20.06;69.85;101300.44;5037172;28;20260;-73
2022/06/11 06:50:52;;;;;;;8.33;2.70;;;;;;;20.11;69.87;101298.47;5048009;28;20204;-74
2022/06/11 06:53:19;;;;;;;3.87;2.40;;;;;;;20.07;69.64;101313.63;5054911;28;20220;-73
2022/06/11 06:55:45;;;;;;;2.23;2.03;;;;;;;20.09;69.61;101313.59;5054846;28;20240;-73
2022/06/11 06:58:14;;;;;;;3.83;2.90;;;;;;;20.04;69.37;101312.00;5055140;28;20212;-73
2022/06/11 07:00:41;;;;;;;4.73;3.00;;;;;;;20.00;70.21;101299.81;5054259;28;20236;-73
2022/06/11 07:03:08;;;;;;;6.20;3.30;;;;;;;20.01;70.26;101290.06;5054767;28;20206;-73
2022/06/11 07:05:34;;;;;;;4.57;2.80;;;;;;;20.04;71.02;101276.69;5054396;28;20224;-73
2022/06/11 07:08:01;;;;;;;3.47;3.17;;;;;;;19.92;70.89;101272.78;5054912;28;20278;-73
2022/06/11 07:10:27;;;;;;;3.07;2.80;;;;;;;19.77;71.94;101262.88;5054401;28;20213;-73
2022/06/11 07:12:54;;;;;;;5.43;3.90;;;;;;;19.63;72.50;101232.50;5054261;28;20748;-73
2022/06/11 07:15:22;;;;;;;3.63;3.33;;;;;;;19.57;72.90;101227.50;5054309;28;20754;-73
2022/06/11 07:17:52;;;;;;;4.27;3.50;;;;;;;19.55;73.01;101208.16;5054051;28;20744;-73
2022/06/11 07:20:23;;;;;;;3.20;2.90;;;;;;;19.70;72.85;101201.34;5054146;28;20223;-74
2022/06/11 07:22:54;;;;;;;3.33;3.03;;;;;;;19.78;72.35;101217.78;5054134;28;20215;-73
2022/06/11 07:25:20;;;;;;;4.23;3.60;;;;;;;19.94;72.14;101232.97;5054261;28;20641;-73
2022/06/11 07:27:52;;;;;;;6.40;3.37;;;;;;;19.97;72.08;101232.84;5054359;28;20290;-73
2022/06/11 07:30:22;;;;;;;3.67;3.23;;;;;;;19.86;72.43;101233.34;5053846;28;20540;-74
2022/06/11 07:32:55;;;;;;;3.67;2.80;;;;;;;19.88;72.47;101220.00;5045738;28;20198;-73
2022/06/11 07:35:22;;;;;;;5.00;2.60;;;;;;;19.99;72.57;101225.66;5053511;28;20639;-78
2022/06/11 07:37:49;;;;;;;3.90;2.97;;;;;;;20.13;72.36;101235.63;5055008;28;20620;-77
2022/06/11 07:40:18;;;;;;;3.13;2.50;;;;;;;19.99;70.85;101258.31;5054990;28;20251;-77
2022/06/11 07:42:45;;;;;;;6.63;2.53;;;;;;;20.06;70.82;101282.78;5053868;28;20639;-77
2022/06/11 07:45:12;;;;;;;5.10;2.83;;;;;;;20.15;71.35;101282.34;5054901;28;20263;-77
2022/06/11 07:47:55;;;;;;;4.43;2.80;;;;;;;20.18;68.91;101319.34;5055232;28;20686;-77
2022/06/11 07:50:24;;;;;;;3.80;2.00;;;;;;;20.35;69.14;101333.59;5055404;28;20588;-77
2022/06/11 07:52:51;;;;;;;3.63;2.60;;;;;;;20.49;68.85;101346.25;5055458;28;20214;-78
2022/06/11 07:55:18;;;;;;;4.07;3.10;;;;;;;20.47;67.57;101378.13;5054557;28;20236;-77
2022/06/11 07:57:45;;;;;;;2.20;1.60;;;;;;;20.60;66.11;101381.13;5055973;28;20206;-77
2022/06/11 08:00:14;;;;;;;2.53;1.60;;;;;;;20.78;63.30;101475.81;5056486;28;20212;-77
2022/06/11 08:02:42;;;;;;;1.70;1.60;;;;;;;20.93;62.88;101514.09;5056430;28;20205;-78
2022/06/11 08:05:09;;;;;;;2.47;1.40;;;;;;;20.91;63.48;101560.19;5054315;28;20221;-78
2022/06/11 08:07:36;;;;;;;1.43;1.20;;;;;;;20.99;61.73;101532.38;5056525;28;20205;-77
2022/06/11 08:10:03;;;;;;;1.83;1.43;;;;;;;20.89;60.46;101597.44;5055004;28;20579;-77
2022/06/11 08:12:30;;;;;;;2.13;1.57;;;;;;;20.94;60.12;101621.09;5056364;28;20212;-78
2022/06/11 08:14:57;;;;;;;1.47;1.20;;;;;;;20.97;60.56;101629.81;5057276;28;20213;-78
2022/06/11 08:17:24;;;;;;;2.03;1.07;;;;;;;20.98;60.39;101622.69;5057160;28;20205;-78
2022/06/11 08:19:52;;;;;;;2.20;1.40;;;;;;;21.12;62.11;101583.13;5055217;28;20200;-77
2022/06/11 08:22:20;;;;;;;2.97;1.23;;;;;;;21.28;61.78;101542.59;5055872;28;20235;-78
2022/06/11 08:24:46;;;;;;;3.00;1.30;;;;;;;21.24;61.11;101592.31;5057036;28;20204;-78
2022/06/11 08:27:13;;;;;;;2.50;1.37;;;;;;;21.30;61.55;101581.41;5054679;28;20255;-77
2022/06/11 08:29:39;;;;;;;2.50;1.70;;;;;;;21.18;63.85;101519.09;5054967;28;20216;-77
2022/06/11 08:32:07;;;;;;;1.63;1.53;;;;;;;21.24;62.13;101525.94;5054035;28;20200;-77
2022/06/11 08:34:35;;;;;;;3.13;1.30;;;;;;;21.26;60.82;101557.75;5054855;28;20285;-77
2022/06/11 08:37:03;;;;;;;2.00;1.40;;;;;;;21.40;62.09;101552.66;5055277;28;20232;-78
2022/06/11 08:39:30;;;;;;;2.33;1.43;;;;;;;21.45;60.81;101573.72;5057163;28;20213;-78
2022/06/11 08:41:57;;;;;;;2.00;1.30;;;;;;;21.46;61.42;101556.84;5055218;28;20235;-77
2022/06/11 08:44:25;;;;;;;1.83;1.50;;;;;;;21.48;61.97;101557.63;5056218;28;20265;-78
2022/06/11 08:46:51;;;;;;;2.07;1.40;;;;;;;21.53;61.54;101540.56;5054278;28;20227;-77
2022/06/11 08:49:26;;;;;;;1.70;1.20;;;;;;;21.56;59.82;101592.69;5057751;28;20233;-77
2022/06/11 08:51:57;;;;;;;1.30;1.20;;;;;;;21.56;60.33;101606.81;5056278;28;20203;-77
2022/06/11 08:54:30;;;;;;;1.97;1.17;;;;;;;21.47;60.58;101579.84;5055150;28;20209;-77
2022/06/11 08:57:06;;;;;;;2.00;1.30;;;;;;;21.47;60.92;101575.38;5053986;28;20227;-77
2022/06/11 08:59:46;;;;;;;2.80;1.10;;;;;;;21.53;59.71;101593.69;5053060;28;20207;-77
2022/06/11 09:02:20;;;;;;;1.83;1.07;;;;;;;;;;5052464;28;20226;-77
2022/06/11 09:05:03;;;;;;;1.67;1.10;;;;;;;21.71;60.36;101585.78;5050196;28;20552;-77
2022/06/11 09:07:42;;;;;;;0.93;0.93;;;;;;;21.76;59.12;101599.72;5045827;28;20209;-78
2022/06/11 09:10:26;;;;;;;3.97;1.37;;;;;;;21.78;60.01;101617.34;5044011;28;20632;-78
2022/06/11 09:13:08;;;;;;;1.80;1.27;;;;;;;21.88;59.75;101604.44;5044327;28;20204;-77
2022/06/11 09:15:46;;;;;;;4.63;1.20;;;;;;;21.90;57.85;101650.44;5045131;28;20602;-78
2022/06/11 09:18:29;;;;;;;1.47;1.00;;;;;;;21.83;56.42;101707.47;5044838;28;20678;-77
2022/06/11 09:21:06;;;;;;;1.77;0.90;;;;;;;21.90;56.52;101692.09;5043660;28;20208;-77
2022/06/11 09:23:51;;;;;;;1.60;1.10;;;;;;;21.91;56.55;101697.34;5046187;28;20244;-77
2022/06/11 09:26:34;;;;;;;1.40;1.07;;;;;;;21.89;56.99;101679.75;5045788;28;20229;-76
2022/06/11 09:29:11;;;;;;;1.57;1.30;;;;;;;21.92;56.86;101679.59;5046273;28;20201;-77
2022/06/11 09:31:45;;;;;;;2.10;1.30;;;;;;;21.96;55.94;101646.63;5049044;28;20280;-77
2022/06/11 09:34:14;;;;;;;1.23;1.10;;;;;;;22.05;57.67;101675.44;5046166;28;20703;-78
2022/06/11 09:36:45;;;;;;;1.20;1.07;;;;;;;22.18;57.66;101681.06;5046507;28;20247;-77
2022/06/11 09:39:35;;;;;;;1.73;1.10;;;;;;;22.12;56.86;101671.56;5045340;28;20216;-77
2022/06/11 09:42:17;;;;;;;1.30;1.20;;;;;;;22.24;57.95;101667.50;5046007;28;20250;-77
2022/06/11 09:44:54;;;;;;;2.17;1.10;;;;;;;22.29;55.67;101700.03;5048354;28;20855;-77
2022/06/11 09:47:29;;;;;;;1.30;1.10;;;;;;;22.41;55.90;101711.88;5043225;28;20200;-77
2022/06/11 09:50:21;;;;;;;0.90;0.90;;;;;;;22.55;55.17;101698.75;5052558;28;20217;-77
2022/06/11 09:53:03;;;;;;;2.10;1.33;;;;;;;22.65;54.51;101757.72;5052496;28;20203;-78
2022/06/11 09:55:36;;;;;;;0.83;0.80;;;;;;;22.75;53.06;101782.09;5054056;28;20284;-77
2022/06/11 09:58:16;;;;;;;1.03;0.93;;;;;;;22.84;53.02;101800.31;5055040;28;20239;-77
2022/06/11 10:00:47;;;;;;;0.77;0.60;;;;;;;22.94;50.90;101838.84;5052465;28;20235;-77
2022/06/11 10:03:30;;;;;;;1.03;0.80;;;;;;;23.02;51.55;101857.16;5052600;28;20209;-77
2022/06/11 10:06:01;;;;;;;0.80;0.80;;;;;;;22.98;52.09;101859.06;5054161;28;20343;-77
2022/06/11 10:08:38;;;;;;;0.73;0.73;;;;;;;22.78;51.38;101843.19;5052922;28;20208;-77
2022/06/11 10:11:11;;;;;;;1.43;0.90;;;;;;;22.88;52.52;101868.44;5052718;28;20192;-77
2022/06/11 10:13:44;;;;;;;0.70;0.70;;;;;;;23.02;51.81;101832.31;5053875;28;20251;-77
2022/06/11 10:16:26;;;;;;;0.90;0.90;;;;;;;23.07;51.41;101841.84;5054244;28;20633;-77
2022/06/11 10:18:55;;;;;;;1.30;0.87;;;;;;;23.05;50.58;101857.00;5052195;28;20209;-77
2022/06/11 10:21:25;;;;;;;0.90;0.90;;;;;;;22.96;49.24;101908.88;5053123;28;20772;-77
2022/06/11 10:23:55;;;;;;;0.60;0.60;;;;;;;22.85;49.46;101932.47;5052768;28;20224;-77
2022/06/11 10:26:27;;;;;;;0.80;0.80;;;;;;;23.14;51.74;101907.16;5053384;28;20225;-78
2022/06/11 10:29:05;;;;;;;0.50;0.50;;;;;;;23.07;50.03;101870.25;5057609;28;20189;-78
2022/06/11 10:31:38;;;;;;;1.13;0.60;;;;;;;23.14;49.86;101917.81;5058038;28;20250;-78
2022/06/11 10:34:12;;;;;;;1.03;0.93;;;;;;;23.04;51.19;101900.56;5056997;28;20570;-77
2022/06/11 10:36:45;;;;;;;0.73;0.60;;;;;;;23.27;51.41;101879.91;5057066;28;20235;-77
2022/06/11 10:39:13;;;;;;;0.80;0.80;;;;;;;23.35;51.62;101870.63;5056132;28;20590;-78
2022/06/11 10:41:52;;;;;;;1.90;1.00;;;;;;;23.60;51.33;101832.06;5057847;28;20240;-77
2022/06/11 10:44:35;;;;;;;5.97;0.87;;;;;;;23.56;49.86;101881.13;5058945;28;20686;-78
2022/06/11 10:47:02;;;;;;;1.63;0.80;;;;;;;23.65;51.36;101895.81;5057908;28;20587;-78
2022/06/11 10:49:29;;;;;;;0.97;0.80;;;;;;;23.31;51.52;101881.50;5056326;28;20737;-77
2022/06/11 10:52:02;;;;;;;1.33;1.23;;;;;;;23.20;50.47;101826.09;5056227;28;20199;-77
2022/06/11 10:54:29;;;;;;;1.03;0.80;;;;;;;23.20;52.37;101856.25;5063748;28;20273;-78
2022/06/11 10:57:00;;;;;;;1.37;0.80;;;;;;;23.24;52.14;101825.00;5064448;28;20714;-79
2022/06/11 10:59:31;;;;;;;0.70;0.70;;;;;;;23.42;53.08;101809.88;5066944;28;20206;-79
2022/06/11 11:02:03;;;;;;;2.23;1.07;;;;;;;23.48;52.05;101804.22;5068230;28;20224;-78
2022/06/11 11:04:42;;;;;;;1.17;0.70;;;;;;;23.44;50.12;101797.34;5068107;28;20205;-79
2022/06/11 11:07:13;;;;;;;1.83;1.10;;;;;;;23.72;51.64;101849.22;5058982;28;20202;-78
2022/06/11 11:09:39;;;;;;;0.60;0.60;;;;;;;23.96;51.37;101847.09;5055921;28;20206;-79
2022/06/11 11:12:17;;;;;;;1.07;0.90;;;;;;;24.03;50.69;101869.84;5055722;28;20224;-78
2022/06/11 11:14:46;;;;;;;0.80;0.70;;;;;;;23.67;47.99;101928.59;5053645;28;20193;-79
2022/06/11 11:17:18;;;;;;;1.30;0.87;;;;;;;23.90;49.54;101930.13;5047427;28;20211;-78
2022/06/11 11:20:29;;;;;;;0.73;0.70;;;;;;;24.17;49.01;101877.97;5046730;28;20202;-79
2022/06/11 11:22:35;;;;;;;0.80;0.80;;;;;;;24.12;48.14;101909.41;5051188;28;20223;-78
2022/06/11 11:25:04;;;;;;;4.07;1.40;;;;;;;23.81;48.25;101941.28;5057048;28;20275;-78
2022/06/11 11:27:40;;;;;;;3.03;1.00;;;;;;;23.88;47.85;101959.53;5057279;28;20235;-79
2022/06/11 11:30:24;;;;;;;1.60;0.80;;;;;;;24.18;47.53;101942.88;5057757;28;20266;-78
2022/06/11 11:32:50;;;;;;;2.50;0.90;;;;;;;24.50;46.39;101911.84;5055813;28;20198;-78
2022/06/11 11:35:21;;;;;;;0.70;0.70;;;;;;;24.87;45.80;101938.34;5057597;28;20287;-79
2022/06/11 11:37:58;;;;;;;0.80;0.80;;;;;;;25.41;45.63;101983.47;5057334;28;20548;-79
2022/06/11 11:40:27;;;;;;;0.67;0.67;;;;;;;26.43;43.46;102046.19;5059288;28;20232;-79
2022/06/11 11:42:56;;;;;;;4.63;1.10;;;;;;;26.09;43.21;102085.69;5059886;28;20271;-79
2022/06/11 11:45:27;;;;;;;1.00;0.83;;;;;;;25.46;42.13;102099.06;5059219;28;20600;-79
2022/06/11 11:48:03;;;;;;;0.90;0.90;;;;;;;24.67;44.22;102116.56;5057034;28;20209;-78